sensor_id;sensor_type;location;lat;lon;timestamp;P1;durP1;ratioP1;P2;durP2;ratioP2
77248;SDS011;66280;45.124;20.718;2023-11-19T00:01:33;12.50;;;6.30;;
77248;SDS011;66280;45.124;20.718;2023-11-19T00:11:44;19.50;;;9.80;;
77248;SDS011;66280;45.124;20.718;2023-11-19T00:31:48;9.80;;;6.37;;
77248;SDS011;66280;45.124;20.718;2023-11-19T00:41:49;9.10;;;5.10;;
77248;SDS011;66280;45.124;20.718;2023-11-19T00:51:51;9.00;;;4.95;;
77248;SDS011;66280;45.124;20.718;2023-11-19T01:01:52;8.03;;;5.40;;
77248;SDS011;66280;45.124;20.718;2023-11-19T01:11:54;8.83;;;5.80;;
77248;SDS011;66280;45.124;20.718;2023-11-19T01:21:56;9.17;;;5.13;;
77248;SDS011;66280;45.124;20.718;2023-11-19T01:31:57;8.70;;;4.83;;
77248;SDS011;66280;45.124;20.718;2023-11-19T01:41:59;12.82;;;5.53;;
77248;SDS011;66280;45.124;20.718;2023-11-19T01:52:00;7.57;;;4.57;;
77248;SDS011;66280;45.124;20.718;2023-11-19T02:02:02;9.17;;;5.57;;
77248;SDS011;66280;45.124;20.718;2023-11-19T02:12:04;12.63;;;5.27;;
77248;SDS011;66280;45.124;20.718;2023-11-19T02:22:07;8.80;;;4.57;;
77248;SDS011;66280;45.124;20.718;2023-11-19T02:32:08;9.00;;;4.47;;
77248;SDS011;66280;45.124;20.718;2023-11-19T02:42:10;11.73;;;4.73;;
77248;SDS011;66280;45.124;20.718;2023-11-19T02:52:12;8.80;;;5.20;;
77248;SDS011;66280;45.124;20.718;2023-11-19T03:12:19;10.70;;;5.80;;
77248;SDS011;66280;45.124;20.718;2023-11-19T03:22:21;13.00;;;6.97;;
77248;SDS011;66280;45.124;20.718;2023-11-19T03:32:22;13.50;;;6.30;;
77248;SDS011;66280;45.124;20.718;2023-11-19T03:42:24;14.50;;;7.70;;
77248;SDS011;66280;45.124;20.718;2023-11-19T03:52:25;14.67;;;5.53;;
77248;SDS011;66280;45.124;20.718;2023-11-19T04:02:36;11.47;;;6.07;;
77248;SDS011;66280;45.124;20.718;2023-11-19T04:12:38;13.07;;;6.25;;
77248;SDS011;66280;45.124;20.718;2023-11-19T04:22:40;12.87;;;7.03;;
77248;SDS011;66280;45.124;20.718;2023-11-19T04:32:42;10.27;;;5.73;;
77248;SDS011;66280;45.124;20.718;2023-11-19T04:42:44;14.43;;;5.73;;
77248;SDS011;66280;45.124;20.718;2023-11-19T04:52:46;12.90;;;6.33;;
77248;SDS011;66280;45.124;20.718;2023-11-19T05:02:47;10.80;;;5.30;;
77248;SDS011;66280;45.124;20.718;2023-11-19T05:12:49;12.73;;;6.30;;
77248;SDS011;66280;45.124;20.718;2023-11-19T05:22:51;12.43;;;6.47;;
77248;SDS011;66280;45.124;20.718;2023-11-19T05:32:54;13.03;;;6.87;;
77248;SDS011;66280;45.124;20.718;2023-11-19T05:42:56;37.07;;;15.97;;
77248;SDS011;66280;45.124;20.718;2023-11-19T05:52:58;12.13;;;6.07;;
77248;SDS011;66280;45.124;20.718;2023-11-19T06:02:59;20.17;;;6.47;;
77248;SDS011;66280;45.124;20.718;2023-11-19T06:13:01;24.97;;;9.20;;
77248;SDS011;66280;45.124;20.718;2023-11-19T06:23:06;13.80;;;7.43;;
77248;SDS011;66280;45.124;20.718;2023-11-19T06:33:08;13.70;;;6.10;;
77248;SDS011;66280;45.124;20.718;2023-11-19T06:43:09;11.20;;;6.55;;
77248;SDS011;66280;45.124;20.718;2023-11-19T07:03:12;17.65;;;8.50;;
77248;SDS011;66280;45.124;20.718;2023-11-19T07:13:14;18.00;;;8.43;;
77248;SDS011;66280;45.124;20.718;2023-11-19T07:23:16;11.97;;;6.47;;
77248;SDS011;66280;45.124;20.718;2023-11-19T07:33:18;10.50;;;6.95;;
77248;SDS011;66280;45.124;20.718;2023-11-19T07:43:19;11.80;;;8.40;;
77248;SDS011;66280;45.124;20.718;2023-11-19T07:53:21;12.00;;;8.20;;
77248;SDS011;66280;45.124;20.718;2023-11-19T08:03:22;15.55;;;8.80;;
77248;SDS011;66280;45.124;20.718;2023-11-19T08:13:26;30.40;;;17.00;;
77248;SDS011;66280;45.124;20.718;2023-11-19T08:23:27;13.82;;;9.85;;
77248;SDS011;66280;45.124;20.718;2023-11-19T08:33:29;21.07;;;14.00;;
77248;SDS011;66280;45.124;20.718;2023-11-19T08:43:31;26.50;;;18.77;;
77248;SDS011;66280;45.124;20.718;2023-11-19T08:53:33;10.90;;;8.20;;
77248;SDS011;66280;45.124;20.718;2023-11-19T09:03:34;18.07;;;14.43;;
77248;SDS011;66280;45.124;20.718;2023-11-19T09:13:39;15.55;;;10.90;;
77248;SDS011;66280;45.124;20.718;2023-11-19T09:23:41;12.13;;;9.23;;
77248;SDS011;66280;45.124;20.718;2023-11-19T09:33:43;26.15;;;17.25;;
77248;SDS011;66280;45.124;20.718;2023-11-19T09:43:45;8.33;;;7.27;;
77248;SDS011;66280;45.124;20.718;2023-11-19T09:53:47;17.90;;;13.00;;
77248;SDS011;66280;45.124;20.718;2023-11-19T10:03:49;8.43;;;7.53;;
77248;SDS011;66280;45.124;20.718;2023-11-19T10:13:51;9.03;;;8.10;;
77248;SDS011;66280;45.124;20.718;2023-11-19T10:23:55;10.07;;;8.30;;
77248;SDS011;66280;45.124;20.718;2023-11-19T10:34:01;22.27;;;17.87;;
77248;SDS011;66280;45.124;20.718;2023-11-19T10:44:02;9.60;;;8.20;;
77248;SDS011;66280;45.124;20.718;2023-11-19T10:54:05;13.82;;;11.38;;
77248;SDS011;66280;45.124;20.718;2023-11-19T11:04:10;10.87;;;8.17;;
77248;SDS011;66280;45.124;20.718;2023-11-19T11:14:14;15.63;;;10.67;;
77248;SDS011;66280;45.124;20.718;2023-11-19T11:55:05;24.43;;;12.10;;
77248;SDS011;66280;45.124;20.718;2023-11-19T12:05:10;11.73;;;7.33;;
77248;SDS011;66280;45.124;20.718;2023-11-19T12:15:12;8.17;;;6.27;;
77248;SDS011;66280;45.124;20.718;2023-11-19T12:25:15;8.83;;;5.33;;
77248;SDS011;66280;45.124;20.718;2023-11-19T12:35:18;8.73;;;4.88;;
77248;SDS011;66280;45.124;20.718;2023-11-19T12:45:20;8.03;;;6.03;;
77248;SDS011;66280;45.124;20.718;2023-11-19T12:55:29;147.63;;;53.83;;
77248;SDS011;66280;45.124;20.718;2023-11-19T13:15:35;9.63;;;6.77;;
77248;SDS011;66280;45.124;20.718;2023-11-19T13:25:37;45.90;;;16.73;;
77248;SDS011;66280;45.124;20.718;2023-11-19T13:35:38;12.30;;;7.30;;
77248;SDS011;66280;45.124;20.718;2023-11-19T13:45:41;10.60;;;5.40;;
77248;SDS011;66280;45.124;20.718;2023-11-19T13:55:43;24.60;;;13.03;;
77248;SDS011;66280;45.124;20.718;2023-11-19T14:05:45;68.83;;;28.97;;
77248;SDS011;66280;45.124;20.718;2023-11-19T14:15:46;29.80;;;12.30;;
77248;SDS011;66280;45.124;20.718;2023-11-19T14:25:48;32.63;;;16.57;;
77248;SDS011;66280;45.124;20.718;2023-11-19T14:35:51;484.07;;;254.70;;
77248;SDS011;66280;45.124;20.718;2023-11-19T14:45:53;139.47;;;56.07;;
77248;SDS011;66280;45.124;20.718;2023-11-19T14:55:54;124.37;;;45.23;;
77248;SDS011;66280;45.124;20.718;2023-11-19T15:05:56;82.93;;;40.75;;
77248;SDS011;66280;45.124;20.718;2023-11-19T15:15:58;91.83;;;43.10;;
77248;SDS011;66280;45.124;20.718;2023-11-19T15:25:59;184.30;;;80.40;;
77248;SDS011;66280;45.124;20.718;2023-11-19T15:36:01;338.70;;;152.60;;
77248;SDS011;66280;45.124;20.718;2023-11-19T15:46:07;425.47;;;185.27;;
77248;SDS011;66280;45.124;20.718;2023-11-19T15:56:09;288.25;;;121.60;;
77248;SDS011;66280;45.124;20.718;2023-11-19T16:06:11;257.27;;;105.57;;
77248;SDS011;66280;45.124;20.718;2023-11-19T16:16:12;231.33;;;96.80;;
77248;SDS011;66280;45.124;20.718;2023-11-19T16:26:14;182.70;;;70.87;;
77248;SDS011;66280;45.124;20.718;2023-11-19T16:36:16;123.27;;;50.90;;
77248;SDS011;66280;45.124;20.718;2023-11-19T16:46:17;150.80;;;53.40;;
77248;SDS011;66280;45.124;20.718;2023-11-19T16:56:19;116.60;;;41.40;;
77248;SDS011;66280;45.124;20.718;2023-11-19T17:06:21;118.67;;;42.77;;
77248;SDS011;66280;45.124;20.718;2023-11-19T17:16:22;176.30;;;89.87;;
77248;SDS011;66280;45.124;20.718;2023-11-19T17:26:24;98.63;;;38.57;;
77248;SDS011;66280;45.124;20.718;2023-11-19T17:36:26;48.45;;;19.98;;
77248;SDS011;66280;45.124;20.718;2023-11-19T17:46:27;56.93;;;26.07;;
77248;SDS011;66280;45.124;20.718;2023-11-19T17:56:29;46.07;;;21.77;;
77248;SDS011;66280;45.124;20.718;2023-11-19T18:06:31;18.57;;;8.43;;
77248;SDS011;66280;45.124;20.718;2023-11-19T18:16:33;55.47;;;22.37;;
77248;SDS011;66280;45.124;20.718;2023-11-19T18:26:34;22.65;;;10.75;;
77248;SDS011;66280;45.124;20.718;2023-11-19T18:36:36;31.40;;;16.13;;
77248;SDS011;66280;45.124;20.718;2023-11-19T18:46:38;35.97;;;16.80;;
77248;SDS011;66280;45.124;20.718;2023-11-19T18:56:39;52.83;;;22.10;;
77248;SDS011;66280;45.124;20.718;2023-11-19T19:06:41;41.03;;;18.23;;
77248;SDS011;66280;45.124;20.718;2023-11-19T19:16:44;49.35;;;21.98;;
77248;SDS011;66280;45.124;20.718;2023-11-19T19:26:45;40.20;;;17.70;;
77248;SDS011;66280;45.124;20.718;2023-11-19T19:36:47;55.40;;;26.43;;
77248;SDS011;66280;45.124;20.718;2023-11-19T19:46:49;64.67;;;29.00;;
77248;SDS011;66280;45.124;20.718;2023-11-19T19:56:50;68.30;;;29.90;;
77248;SDS011;66280;45.124;20.718;2023-11-19T20:06:52;78.60;;;33.80;;
77248;SDS011;66280;45.124;20.718;2023-11-19T20:16:53;59.90;;;27.93;;
77248;SDS011;66280;45.124;20.718;2023-11-19T20:26:55;38.97;;;17.73;;
77248;SDS011;66280;45.124;20.718;2023-11-19T20:36:57;44.70;;;20.57;;
77248;SDS011;66280;45.124;20.718;2023-11-19T20:46:59;55.30;;;24.43;;
77248;SDS011;66280;45.124;20.718;2023-11-19T20:57:05;52.70;;;22.10;;
77248;SDS011;66280;45.124;20.718;2023-11-19T21:07:07;35.70;;;18.13;;
77248;SDS011;66280;45.124;20.718;2023-11-19T21:17:08;32.40;;;16.93;;
77248;SDS011;66280;45.124;20.718;2023-11-19T21:27:10;71.17;;;29.00;;
77248;SDS011;66280;45.124;20.718;2023-11-19T21:37:14;86.63;;;38.27;;
77248;SDS011;66280;45.124;20.718;2023-11-19T21:47:15;75.28;;;32.40;;
77248;SDS011;66280;45.124;20.718;2023-11-19T21:57:17;56.47;;;25.30;;
77248;SDS011;66280;45.124;20.718;2023-11-19T22:07:18;47.97;;;21.00;;
77248;SDS011;66280;45.124;20.718;2023-11-19T22:17:20;43.97;;;19.10;;
77248;SDS011;66280;45.124;20.718;2023-11-19T22:27:23;37.07;;;17.63;;
77248;SDS011;66280;45.124;20.718;2023-11-19T22:37:25;38.13;;;17.05;;
77248;SDS011;66280;45.124;20.718;2023-11-19T22:47:27;54.50;;;23.73;;
77248;SDS011;66280;45.124;20.718;2023-11-19T22:57:30;40.10;;;21.73;;
77248;SDS011;66280;45.124;20.718;2023-11-19T23:07:31;26.10;;;11.67;;
77248;SDS011;66280;45.124;20.718;2023-11-19T23:17:33;38.17;;;18.70;;
77248;SDS011;66280;45.124;20.718;2023-11-19T23:27:35;28.52;;;14.65;;
77248;SDS011;66280;45.124;20.718;2023-11-19T23:37:38;43.43;;;20.40;;
77248;SDS011;66280;45.124;20.718;2023-11-19T23:47:42;50.83;;;23.03;;
77248;SDS011;66280;45.124;20.718;2023-11-19T23:57:43;57.33;;;25.40;;
